createdAt,value
2018-12-23T00:00:23.555Z,11.60
2018-12-23T00:01:23.551Z,10.50
2018-12-23T00:02:23.549Z,11.80
2018-12-23T00:03:23.520Z,13.30
2018-12-23T00:04:23.524Z,12.70
2018-12-23T00:05:23.504Z,11.00
2018-12-23T00:06:23.497Z,12.00
2018-12-23T00:07:23.560Z,10.80
2018-12-23T00:08:23.480Z,13.00
2018-12-23T00:09:23.456Z,11.80
2018-12-23T00:10:23.446Z,10.70
2018-12-23T00:11:23.435Z,11.50
2018-12-23T00:12:23.436Z,9.00
2018-12-23T00:13:23.413Z,11.60
2018-12-23T00:14:23.398Z,9.90
2018-12-23T00:15:23.397Z,10.70
2018-12-23T00:16:23.376Z,12.80
2018-12-23T00:17:23.385Z,10.80
2018-12-23T00:18:23.356Z,10.90
2018-12-23T00:19:23.351Z,14.20
2018-12-23T00:20:23.335Z,10.60
2018-12-23T00:21:23.332Z,13.10
2018-12-23T00:22:23.326Z,9.90
2018-12-23T00:23:23.298Z,14.50
2018-12-23T00:24:23.285Z,13.70
2018-12-23T00:25:23.272Z,14.40
2018-12-23T00:26:23.271Z,13.00
2018-12-23T00:27:23.273Z,15.10
2018-12-23T00:28:23.244Z,13.10
2018-12-23T00:29:23.236Z,15.90
2018-12-23T00:30:23.218Z,14.60
2018-12-23T00:31:23.223Z,13.30
2018-12-23T00:32:23.209Z,14.00
2018-12-23T00:33:23.190Z,11.40
2018-12-23T00:34:23.172Z,15.90
2018-12-23T00:35:23.159Z,14.10
2018-12-23T00:36:23.162Z,14.00
2018-12-23T00:37:23.166Z,13.60
2018-12-23T00:38:23.148Z,14.00
2018-12-23T00:39:23.118Z,15.40
2018-12-23T00:40:23.105Z,17.20
2018-12-23T00:41:23.093Z,17.60
2018-12-23T00:42:23.089Z,15.90
2018-12-23T00:43:23.098Z,17.60
2018-12-23T00:44:23.091Z,16.60
2018-12-23T00:45:23.051Z,17.30
2018-12-23T00:46:23.090Z,17.90
2018-12-23T00:47:23.051Z,16.40
2018-12-23T00:48:23.119Z,16.90
2018-12-23T00:49:23.016Z,14.50
2018-12-23T00:50:23.024Z,13.50
2018-12-23T00:51:22.983Z,15.90
2018-12-23T00:52:22.972Z,16.00
2018-12-23T00:53:22.970Z,14.30
2018-12-23T00:54:22.947Z,14.30
2018-12-23T00:55:22.952Z,11.80
2018-12-23T00:56:22.922Z,13.40
2018-12-23T00:57:22.915Z,13.40
2018-12-23T00:58:22.912Z,11.70
2018-12-23T00:59:22.901Z,13.30
2018-12-23T01:00:22.883Z,15.90
2018-12-23T01:01:22.873Z,13.80
2018-12-23T01:02:22.859Z,16.00
2018-12-23T01:03:22.860Z,13.40
2018-12-23T01:04:22.833Z,14.30
2018-12-23T01:05:28.798Z,14.40
2018-12-23T01:06:23.828Z,14.00
2018-12-23T01:07:22.814Z,14.80
2018-12-23T01:08:22.806Z,13.10
2018-12-23T01:09:22.799Z,11.40
2018-12-23T01:10:22.769Z,12.50
2018-12-23T01:11:22.769Z,15.10
2018-12-23T01:12:22.780Z,13.50
2018-12-23T01:13:22.755Z,12.60
2018-12-23T01:14:22.733Z,13.90
2018-12-23T01:15:22.708Z,11.30
2018-12-23T01:16:22.701Z,12.20
2018-12-23T01:17:22.690Z,15.40
2018-12-23T01:18:22.703Z,11.80
2018-12-23T01:19:22.665Z,12.40
2018-12-23T01:20:22.653Z,11.10
2018-12-23T01:21:22.642Z,15.30
2018-12-23T01:22:22.639Z,14.10
2018-12-23T01:23:22.646Z,13.60
2018-12-23T01:24:22.624Z,11.20
2018-12-23T01:25:22.598Z,11.90
2018-12-23T01:26:22.584Z,13.70
2018-12-23T01:27:22.574Z,13.00
2018-12-23T01:28:22.580Z,12.80
2018-12-23T01:29:22.562Z,10.20
2018-12-23T01:30:22.547Z,11.00
2018-12-23T01:31:22.548Z,11.80
2018-12-23T01:32:22.520Z,11.50
2018-12-23T01:33:22.530Z,9.50
2018-12-23T01:34:22.511Z,10.70
2018-12-23T01:35:22.517Z,9.70
2018-12-23T01:36:22.475Z,15.20
2018-12-23T01:37:22.462Z,12.20
2018-12-23T01:38:22.466Z,9.90
2018-12-23T01:39:22.460Z,10.40
2018-12-23T01:40:22.448Z,12.60
2018-12-23T01:41:22.416Z,14.00
2018-12-23T01:42:22.409Z,13.50
2018-12-23T01:43:22.410Z,10.40
2018-12-23T01:44:22.389Z,10.80
2018-12-23T01:45:22.394Z,12.20
2018-12-23T01:46:22.376Z,12.00
2018-12-23T01:47:22.353Z,10.80
2018-12-23T01:48:22.354Z,14.10
2018-12-23T01:49:22.327Z,12.30
2018-12-23T01:50:22.323Z,12.50
2018-12-23T01:51:22.343Z,10.10
2018-12-23T01:52:22.312Z,11.10
2018-12-23T01:53:22.309Z,10.40
2018-12-23T01:54:22.270Z,9.20
2018-12-23T01:55:22.260Z,13.00
2018-12-23T01:56:22.261Z,13.10
2018-12-23T01:57:22.249Z,11.20
2018-12-23T01:58:22.244Z,12.90
2018-12-23T01:59:22.251Z,7.90
2018-12-23T02:00:22.201Z,12.10
2018-12-23T02:01:22.208Z,11.90
2018-12-23T02:02:22.205Z,12.40
2018-12-23T02:03:22.196Z,10.80
2018-12-23T02:04:22.158Z,12.00
2018-12-23T02:05:22.146Z,9.60
2018-12-23T02:06:22.134Z,9.60
2018-12-23T02:07:22.127Z,9.30
2018-12-23T02:08:22.134Z,11.10
2018-12-23T02:09:22.129Z,12.00
2018-12-23T02:10:22.092Z,10.50
2018-12-23T02:11:22.077Z,12.80
2018-12-23T02:12:22.070Z,11.80
2018-12-23T02:13:22.091Z,9.90
2018-12-23T02:14:22.046Z,9.40
2018-12-23T02:16:34.500Z,8.00
2018-12-23T02:17:30.749Z,10.70
2018-12-23T02:18:30.763Z,9.50
2018-12-23T02:19:30.728Z,9.80
2018-12-23T02:20:30.718Z,10.70
2018-12-23T02:21:30.720Z,9.70
2018-12-23T02:22:30.693Z,8.70
2018-12-23T02:23:30.691Z,9.10
2018-12-23T02:24:30.669Z,11.60
2018-12-23T02:25:30.665Z,9.20
2018-12-23T02:26:30.658Z,11.10
2018-12-23T02:27:30.638Z,8.60
2018-12-23T02:28:30.645Z,9.60
2018-12-23T02:29:30.622Z,10.40
2018-12-23T02:30:30.601Z,12.20
2018-12-23T02:31:30.589Z,9.80
2018-12-23T02:32:30.583Z,12.40
2018-12-23T02:33:30.600Z,10.80
2018-12-23T02:34:30.556Z,12.70
2018-12-23T02:35:30.543Z,8.90
2018-12-23T02:36:30.618Z,10.00
2018-12-23T02:37:30.535Z,10.20
2018-12-23T02:38:30.546Z,11.50
2018-12-23T02:39:30.498Z,10.50
2018-12-23T02:40:30.500Z,10.90
2018-12-23T02:41:31.891Z,10.50
2018-12-23T02:42:30.507Z,7.90
2018-12-23T02:43:30.484Z,10.80
2018-12-23T02:44:30.461Z,10.30
2018-12-23T02:45:30.430Z,10.40
2018-12-23T02:46:30.416Z,8.90
2018-12-23T02:47:30.405Z,9.80
2018-12-23T02:48:30.403Z,8.90
2018-12-23T02:49:30.381Z,11.20
2018-12-23T02:50:30.384Z,11.40
2018-12-23T02:51:30.365Z,10.60
2018-12-23T02:52:30.349Z,11.20
2018-12-23T02:53:30.354Z,12.40
2018-12-23T02:54:30.334Z,10.30
2018-12-23T02:55:30.317Z,10.70
2018-12-23T02:56:30.307Z,15.40
2018-12-23T02:57:30.289Z,14.50
2018-12-23T02:58:30.319Z,16.10
2018-12-23T02:59:30.273Z,14.20
2018-12-23T03:00:30.259Z,14.10
2018-12-23T03:01:30.258Z,12.70
2018-12-23T03:02:30.245Z,16.40
2018-12-23T03:03:30.220Z,15.20
2018-12-23T03:04:30.221Z,15.80
2018-12-23T03:05:30.215Z,17.70
2018-12-23T03:06:30.191Z,15.80
2018-12-23T03:07:30.177Z,19.10
2018-12-23T03:08:30.178Z,15.80
2018-12-23T03:09:30.161Z,16.90
2018-12-23T03:10:30.279Z,15.60
2018-12-23T03:11:30.133Z,16.20
2018-12-23T03:12:30.284Z,14.60
2018-12-23T03:13:30.118Z,15.20
2018-12-23T03:14:30.119Z,12.80
2018-12-23T03:15:30.088Z,14.90
2018-12-23T03:16:30.167Z,12.10
2018-12-23T03:17:30.064Z,10.70
2018-12-23T03:18:30.063Z,12.60
2018-12-23T03:19:30.060Z,11.20
2018-12-23T03:20:30.027Z,15.40
2018-12-23T03:21:30.021Z,10.00
2018-12-23T03:22:30.015Z,12.60
2018-12-23T03:23:29.993Z,12.90
2018-12-23T03:24:30.001Z,10.90
2018-12-23T03:25:29.984Z,11.70
2018-12-23T03:26:29.970Z,12.60
2018-12-23T03:27:29.951Z,11.80
2018-12-23T03:28:29.939Z,12.70
2018-12-23T03:29:29.950Z,13.00
2018-12-23T03:30:29.928Z,12.80
2018-12-23T03:31:29.949Z,10.90
2018-12-23T03:32:29.897Z,13.00
2018-12-23T03:33:29.904Z,9.90
2018-12-23T03:34:29.882Z,12.20
2018-12-23T03:35:32.529Z,11.50
2018-12-23T03:36:29.861Z,9.90
2018-12-23T03:37:29.889Z,10.40
2018-12-23T03:38:29.861Z,11.00
2018-12-23T03:39:29.824Z,11.90
2018-12-23T03:40:29.806Z,9.80
2018-12-23T03:41:29.805Z,13.60
2018-12-23T03:42:29.802Z,12.70
2018-12-23T03:43:29.778Z,9.60
2018-12-23T03:44:29.781Z,11.90
2018-12-23T03:45:29.741Z,12.30
2018-12-23T03:46:29.730Z,11.40
2018-12-23T03:47:29.721Z,9.70
2018-12-23T03:48:29.716Z,12.70
2018-12-23T03:49:29.705Z,12.40
2018-12-23T03:50:29.685Z,12.40
2018-12-23T03:51:29.677Z,11.40
2018-12-23T03:52:29.668Z,12.00
2018-12-23T03:53:29.672Z,13.50
2018-12-23T03:54:29.663Z,9.30
2018-12-23T03:55:29.632Z,10.10
2018-12-23T03:56:29.620Z,12.70
2018-12-23T03:57:29.616Z,15.70
2018-12-23T03:58:29.603Z,11.70
2018-12-23T03:59:29.593Z,10.80
2018-12-23T04:00:29.665Z,10.30
2018-12-23T04:01:29.563Z,12.50
2018-12-23T04:02:29.548Z,12.00
2018-12-23T04:03:29.542Z,10.20
2018-12-23T04:04:29.549Z,16.20
2018-12-23T04:05:29.530Z,12.70
2018-12-23T04:06:29.509Z,11.20
2018-12-23T04:07:29.494Z,13.50
2018-12-23T04:08:29.482Z,12.60
2018-12-23T04:09:29.489Z,13.00
2018-12-23T04:10:29.459Z,13.80
2018-12-23T04:11:29.471Z,12.50
2018-12-23T04:12:29.447Z,14.10
2018-12-23T04:13:29.424Z,12.40
2018-12-23T04:14:29.426Z,9.50
2018-12-23T04:15:29.410Z,11.90
2018-12-23T04:16:29.397Z,13.30
2018-12-23T04:17:29.400Z,11.10
2018-12-23T04:18:29.367Z,12.60
2018-12-23T04:19:29.367Z,11.60
2018-12-23T04:20:29.373Z,10.50
2018-12-23T04:21:29.354Z,10.50
2018-12-23T04:22:29.333Z,11.40
2018-12-23T04:23:29.311Z,12.30
2018-12-23T04:24:29.320Z,11.40
2018-12-23T04:25:29.292Z,13.40
2018-12-23T04:26:29.282Z,11.60
2018-12-23T04:27:29.271Z,13.20
2018-12-23T04:28:29.253Z,13.90
2018-12-23T04:29:29.251Z,12.90
2018-12-23T04:30:29.233Z,10.50
2018-12-23T04:31:29.229Z,11.50
2018-12-23T04:32:29.227Z,10.90
2018-12-23T04:33:29.200Z,11.10
2018-12-23T04:34:29.206Z,12.10
2018-12-23T04:35:29.176Z,13.00
2018-12-23T04:36:33.941Z,14.40
2018-12-23T04:37:30.152Z,12.50
2018-12-23T04:38:29.144Z,11.80
2018-12-23T04:39:29.143Z,10.80
2018-12-23T04:40:29.114Z,10.00
2018-12-23T04:41:29.115Z,10.60
2018-12-23T04:42:29.095Z,11.80
2018-12-23T04:43:29.100Z,11.10
2018-12-23T04:44:29.087Z,11.30
2018-12-23T04:45:29.062Z,9.20
2018-12-23T04:46:29.051Z,9.30
2018-12-23T04:47:29.037Z,13.50
2018-12-23T04:48:29.030Z,11.70
2018-12-23T04:49:29.027Z,13.10
2018-12-23T04:50:29.001Z,14.80
2018-12-23T04:51:28.990Z,13.90
2018-12-23T04:52:28.983Z,16.00
2018-12-23T04:53:28.970Z,18.10
2018-12-23T04:54:28.973Z,15.50
2018-12-23T04:55:28.963Z,15.90
2018-12-23T04:56:28.964Z,12.90
2018-12-23T04:57:28.926Z,13.70
2018-12-23T04:58:28.913Z,14.70
2018-12-23T04:59:28.932Z,10.30
2018-12-23T05:00:28.890Z,9.10
2018-12-23T05:01:28.894Z,10.60
2018-12-23T05:02:28.888Z,13.30
2018-12-23T05:03:28.855Z,13.40
2018-12-23T05:04:28.845Z,10.80
2018-12-23T05:05:28.845Z,15.10
2018-12-23T05:06:28.844Z,14.20
2018-12-23T05:07:28.812Z,10.00
2018-12-23T05:08:28.810Z,11.60
2018-12-23T05:09:28.788Z,13.80
2018-12-23T05:10:28.789Z,12.70
2018-12-23T05:11:28.775Z,10.70
2018-12-23T05:12:28.777Z,12.50
2018-12-23T05:13:28.769Z,12.50
2018-12-23T05:14:28.733Z,12.70
2018-12-23T05:15:28.732Z,12.00
2018-12-23T05:16:28.715Z,13.80
2018-12-23T05:17:28.712Z,13.10
2018-12-23T05:18:28.701Z,11.30
2018-12-23T05:19:28.705Z,15.50
2018-12-23T05:20:28.682Z,15.80
2018-12-23T05:21:28.653Z,13.70
2018-12-23T05:22:28.647Z,13.00
2018-12-23T05:23:28.657Z,12.80
2018-12-23T05:24:28.664Z,12.40
2018-12-23T05:25:28.643Z,12.70
2018-12-23T05:26:28.597Z,15.30
2018-12-23T05:27:28.587Z,14.40
2018-12-23T05:28:28.582Z,14.40
2018-12-23T05:29:28.569Z,13.80
2018-12-23T05:30:28.578Z,17.30
2018-12-23T05:31:28.541Z,16.90
2018-12-23T05:32:28.535Z,15.20
2018-12-23T05:33:28.519Z,14.10
2018-12-23T05:34:28.523Z,17.30
2018-12-23T05:35:28.511Z,17.50
2018-12-23T05:36:28.517Z,13.70
2018-12-23T05:37:28.477Z,15.30
2018-12-23T05:38:28.462Z,18.50
2018-12-23T05:39:28.458Z,20.00
2018-12-23T05:40:28.468Z,21.10
2018-12-23T05:41:28.478Z,22.90
2018-12-23T05:42:28.430Z,22.50
2018-12-23T05:43:28.407Z,19.10
2018-12-23T05:44:28.400Z,22.90
2018-12-23T05:45:28.397Z,24.10
2018-12-23T05:46:28.373Z,24.80
2018-12-23T05:47:28.367Z,18.60
2018-12-23T05:48:28.382Z,22.70
2018-12-23T05:49:28.343Z,18.60
2018-12-23T05:50:28.343Z,21.40
2018-12-23T05:51:28.329Z,18.70
2018-12-23T05:52:28.325Z,21.50
2018-12-23T05:53:28.307Z,18.00
2018-12-23T05:54:28.302Z,19.80
2018-12-23T05:55:28.288Z,21.50
2018-12-23T05:56:28.260Z,25.20
2018-12-23T05:57:28.247Z,23.30
2018-12-23T05:58:28.250Z,25.40
2018-12-23T05:59:28.230Z,25.90
2018-12-23T06:00:28.233Z,24.70
2018-12-23T06:01:28.203Z,24.60
2018-12-23T06:02:28.205Z,24.70
2018-12-23T06:03:28.181Z,25.10
2018-12-23T06:04:28.182Z,25.50
2018-12-23T06:05:28.172Z,24.30
2018-12-23T06:06:28.153Z,22.70
2018-12-23T06:07:28.146Z,18.30
2018-12-23T06:08:28.129Z,19.40
2018-12-23T06:09:28.110Z,17.60
2018-12-23T06:10:28.118Z,19.60
2018-12-23T06:11:28.090Z,19.90
2018-12-23T06:12:28.081Z,15.80
2018-12-23T06:13:28.067Z,20.90
2018-12-23T06:14:28.054Z,16.00
2018-12-23T06:15:28.058Z,19.00
2018-12-23T06:16:28.035Z,16.70
2018-12-23T06:17:28.022Z,16.40
2018-12-23T06:18:28.026Z,16.30
2018-12-23T06:19:28.002Z,17.10
2018-12-23T06:20:28.001Z,15.40
2018-12-23T06:21:27.977Z,14.70
2018-12-23T06:22:27.969Z,14.20
2018-12-23T06:23:27.956Z,16.90
2018-12-23T06:24:27.962Z,13.30
2018-12-23T06:25:27.951Z,14.30
2018-12-23T06:26:27.923Z,13.40
2018-12-23T06:27:27.916Z,17.00
2018-12-23T06:28:27.903Z,14.80
2018-12-23T06:29:27.888Z,15.70
2018-12-23T06:30:27.897Z,15.00
2018-12-23T06:31:27.865Z,13.00
2018-12-23T06:32:27.854Z,13.70
2018-12-23T06:33:27.842Z,14.20
2018-12-23T06:34:27.836Z,14.40
2018-12-23T06:35:27.830Z,13.60
2018-12-23T06:36:27.822Z,16.70
2018-12-23T06:37:27.797Z,12.40
2018-12-23T06:38:27.791Z,12.70
2018-12-23T06:39:27.777Z,15.20
2018-12-23T06:40:27.769Z,17.90
2018-12-23T06:41:27.803Z,13.30
2018-12-23T06:42:27.759Z,15.30
2018-12-23T06:43:27.735Z,15.40
2018-12-23T06:44:27.724Z,12.50
2018-12-23T06:45:27.711Z,13.60
2018-12-23T06:46:27.716Z,14.70
2018-12-23T06:47:27.689Z,13.40
2018-12-23T06:48:27.673Z,16.90
2018-12-23T06:49:27.666Z,17.00
2018-12-23T06:50:27.657Z,15.70
2018-12-23T06:51:27.660Z,15.10
2018-12-23T06:52:27.638Z,14.50
2018-12-23T06:53:27.638Z,16.10
2018-12-23T06:54:27.608Z,16.00
2018-12-23T06:55:27.598Z,18.60
2018-12-23T06:56:27.608Z,16.60
2018-12-23T06:57:27.582Z,18.90
2018-12-23T06:58:27.564Z,16.20
2018-12-23T06:59:27.552Z,20.30
2018-12-23T07:00:27.541Z,19.60
2018-12-23T07:01:27.539Z,21.50
2018-12-23T07:02:27.519Z,21.80
2018-12-23T07:03:27.535Z,22.40
2018-12-23T07:04:27.511Z,20.40
2018-12-23T07:05:27.481Z,19.60
2018-12-23T07:06:27.483Z,21.60
2018-12-23T07:07:27.468Z,24.30
2018-12-23T07:08:27.457Z,22.90
2018-12-23T07:09:27.437Z,22.50
2018-12-23T07:10:27.425Z,22.60
2018-12-23T07:11:27.422Z,18.50
2018-12-23T07:12:27.402Z,18.50
2018-12-23T07:13:27.394Z,23.80
2018-12-23T07:14:27.410Z,22.20
2018-12-23T07:15:27.389Z,20.10
2018-12-23T07:16:27.366Z,17.50
2018-12-23T07:17:27.347Z,17.80
2018-12-23T07:18:27.338Z,18.00
2018-12-23T07:19:27.339Z,16.50
2018-12-23T07:20:27.316Z,17.10
2018-12-23T07:21:27.460Z,18.10
2018-12-23T07:22:27.288Z,18.20
2018-12-23T07:23:27.276Z,14.50
2018-12-23T07:24:27.275Z,14.30
2018-12-23T07:25:27.260Z,17.30
2018-12-23T07:26:27.256Z,15.00
2018-12-23T07:27:27.241Z,15.80
2018-12-23T07:28:27.222Z,17.30
2018-12-23T07:29:27.252Z,15.40
2018-12-23T07:30:27.209Z,17.30
2018-12-23T07:31:27.188Z,14.20
2018-12-23T07:32:27.213Z,14.00
2018-12-23T07:33:27.163Z,15.80
2018-12-23T07:34:27.152Z,13.70
2018-12-23T07:35:27.146Z,16.40
2018-12-23T07:36:27.129Z,16.50
2018-12-23T07:37:27.817Z,16.90
2018-12-23T07:38:27.111Z,15.90
2018-12-23T07:39:27.098Z,14.80
2018-12-23T07:40:27.085Z,16.20
2018-12-23T07:41:27.084Z,16.00
2018-12-23T07:42:27.091Z,15.50
2018-12-23T07:43:27.065Z,17.30
2018-12-23T07:44:27.045Z,15.90
2018-12-23T07:45:27.027Z,19.10
2018-12-23T07:46:27.020Z,13.70
2018-12-23T07:47:27.035Z,16.20
2018-12-23T07:48:27.011Z,15.60
2018-12-23T07:49:26.985Z,17.20
2018-12-23T07:50:26.972Z,15.80
2018-12-23T07:51:26.964Z,15.90
2018-12-23T07:52:26.963Z,17.40
2018-12-23T07:53:26.940Z,15.80
2018-12-23T07:54:26.949Z,18.40
2018-12-23T07:55:26.918Z,16.90
2018-12-23T07:56:26.921Z,17.60
2018-12-23T07:57:26.905Z,20.00
2018-12-23T07:58:26.884Z,18.00
2018-12-23T07:59:26.883Z,18.70
2018-12-23T08:00:26.883Z,19.50
2018-12-23T08:01:26.847Z,19.50
2018-12-23T08:02:26.846Z,18.60
2018-12-23T08:03:26.834Z,19.20
2018-12-23T08:04:26.814Z,20.90
2018-12-23T08:05:26.805Z,17.70
2018-12-23T08:06:26.799Z,23.00
2018-12-23T08:07:26.799Z,17.80
2018-12-23T08:08:26.769Z,18.90
2018-12-23T08:09:26.778Z,20.30
2018-12-23T08:10:26.751Z,18.40
2018-12-23T08:11:26.753Z,13.30
2018-12-23T08:12:26.735Z,17.00
2018-12-23T08:13:26.720Z,18.80
2018-12-23T08:14:26.699Z,18.80
2018-12-23T08:15:26.696Z,17.50
2018-12-23T08:16:26.681Z,13.70
2018-12-23T08:17:26.668Z,18.40
2018-12-23T08:18:26.673Z,16.20
2018-12-23T08:19:26.644Z,19.60
2018-12-23T08:20:26.640Z,18.80
2018-12-23T08:21:26.623Z,18.00
2018-12-23T08:22:26.619Z,14.00
2018-12-23T08:23:26.626Z,20.70
2018-12-23T08:24:26.588Z,13.80
2018-12-23T08:25:26.575Z,17.70
2018-12-23T08:26:26.565Z,15.50
2018-12-23T08:27:26.555Z,12.90
2018-12-23T08:28:26.559Z,17.40
2018-12-23T08:29:26.540Z,13.50
2018-12-23T08:30:26.519Z,16.50
2018-12-23T08:31:26.511Z,16.70
2018-12-23T08:32:26.497Z,14.70
2018-12-23T08:33:26.525Z,14.90
2018-12-23T08:34:26.475Z,17.50
2018-12-23T08:35:26.474Z,16.20
2018-12-23T08:36:26.450Z,15.30
2018-12-23T08:37:26.438Z,18.60
2018-12-23T08:38:26.445Z,12.40
2018-12-23T08:39:26.424Z,17.50
2018-12-23T08:40:26.407Z,15.30
2018-12-23T08:41:26.395Z,14.30
2018-12-23T08:42:26.388Z,16.10
2018-12-23T08:43:26.384Z,17.40
2018-12-23T08:44:26.365Z,15.90
2018-12-23T08:45:26.348Z,15.70
2018-12-23T08:46:26.435Z,17.30
2018-12-23T08:47:26.325Z,20.20
2018-12-23T08:48:26.330Z,17.70
2018-12-23T08:49:26.307Z,19.00
2018-12-23T08:50:26.307Z,18.50
2018-12-23T08:51:26.289Z,17.60
2018-12-23T08:52:26.269Z,15.70
2018-12-23T08:53:26.292Z,16.30
2018-12-23T08:54:26.255Z,17.40
2018-12-23T08:55:26.240Z,16.30
2018-12-23T08:56:26.229Z,17.20
2018-12-23T08:57:26.217Z,19.50
2018-12-23T08:58:26.200Z,17.60
2018-12-23T08:59:26.203Z,16.00
2018-12-23T09:00:26.178Z,18.40
2018-12-23T09:01:26.168Z,14.80
2018-12-23T09:02:26.246Z,16.00
2018-12-23T09:03:26.166Z,17.60
2018-12-23T09:04:26.146Z,16.50
2018-12-23T09:05:26.124Z,15.90
2018-12-23T09:06:26.113Z,18.50
2018-12-23T09:07:26.100Z,13.90
2018-12-23T09:08:26.090Z,17.80
2018-12-23T09:09:26.098Z,16.70
2018-12-23T09:10:26.064Z,19.60
2018-12-23T09:11:26.082Z,17.70
2018-12-23T09:12:26.055Z,18.00
2018-12-23T09:13:26.144Z,16.80
2018-12-23T09:14:26.038Z,15.00
2018-12-23T09:15:26.016Z,16.10
2018-12-23T09:16:25.998Z,16.00
2018-12-23T09:17:26.003Z,19.00
2018-12-23T09:18:25.990Z,16.90
2018-12-23T09:19:25.980Z,15.60
2018-12-23T09:20:25.964Z,17.30
2018-12-23T09:21:25.941Z,15.80
2018-12-23T09:22:25.927Z,15.70
2018-12-23T09:23:25.931Z,20.90
2018-12-23T09:24:25.917Z,16.80
2018-12-23T09:25:25.907Z,16.50
2018-12-23T09:26:25.908Z,17.70
2018-12-23T09:27:25.872Z,15.80
2018-12-23T09:28:25.882Z,17.30
2018-12-23T09:29:25.863Z,17.20
2018-12-23T09:30:25.839Z,16.70
2018-12-23T09:31:25.834Z,16.80
2018-12-23T09:32:25.816Z,18.60
2018-12-23T09:33:25.802Z,17.50
2018-12-23T09:34:25.808Z,16.80
2018-12-23T09:35:25.783Z,16.90
2018-12-23T09:36:25.810Z,15.30
2018-12-23T09:37:25.764Z,18.00
2018-12-23T09:38:25.746Z,14.80
2018-12-23T09:39:25.742Z,15.30
2018-12-23T09:40:25.749Z,16.60
2018-12-23T09:41:25.711Z,18.00
2018-12-23T09:42:25.711Z,15.20
2018-12-23T09:43:25.695Z,16.80
2018-12-23T09:44:25.684Z,16.50
2018-12-23T09:45:25.678Z,15.20
2018-12-23T09:46:25.659Z,18.70
2018-12-23T09:47:25.646Z,18.20
2018-12-23T09:48:25.633Z,17.30
2018-12-23T09:49:25.627Z,14.90
2018-12-23T09:50:25.622Z,17.10
2018-12-23T09:51:25.609Z,18.50
2018-12-23T09:52:25.616Z,22.80
2018-12-23T09:53:25.578Z,18.10
2018-12-23T09:54:25.573Z,17.20
2018-12-23T09:55:25.568Z,16.70
2018-12-23T09:56:25.542Z,16.60
2018-12-23T09:57:25.550Z,21.40
2018-12-23T09:58:25.523Z,18.90
2018-12-23T09:59:25.514Z,20.00
2018-12-23T10:00:25.525Z,15.20
2018-12-23T10:01:25.487Z,19.80
2018-12-23T10:02:25.483Z,17.70
2018-12-23T10:03:25.474Z,18.40
2018-12-23T10:04:25.473Z,18.80
2018-12-23T10:05:25.455Z,21.00
2018-12-23T10:06:25.431Z,20.40
2018-12-23T10:07:25.423Z,21.00
2018-12-23T10:08:25.410Z,17.70
2018-12-23T10:09:25.397Z,17.90
2018-12-23T10:10:28.473Z,19.20
2018-12-23T10:11:25.380Z,21.10
2018-12-23T10:12:25.383Z,19.10
2018-12-23T10:13:25.353Z,21.60
2018-12-23T10:14:25.352Z,21.00
2018-12-23T10:15:25.352Z,21.40
2018-12-23T10:16:25.338Z,19.90
2018-12-23T10:17:25.306Z,19.70
2018-12-23T10:18:25.298Z,23.90
2018-12-23T10:19:25.284Z,19.70
2018-12-23T10:20:25.292Z,21.50
2018-12-23T10:21:25.271Z,19.90
2018-12-23T10:22:25.253Z,18.90
2018-12-23T10:23:25.240Z,21.60
2018-12-23T10:24:25.246Z,20.20
2018-12-23T10:25:25.216Z,20.00
2018-12-23T10:26:25.215Z,22.00
2018-12-23T10:27:25.198Z,21.00
2018-12-23T10:28:25.183Z,17.80
2018-12-23T10:29:25.173Z,21.90
2018-12-23T10:30:25.159Z,16.20
2018-12-23T10:31:25.165Z,23.40
2018-12-23T10:32:25.159Z,18.60
2018-12-23T10:33:25.128Z,19.10
2018-12-23T10:34:25.116Z,23.60
2018-12-23T10:35:25.148Z,19.20
2018-12-23T10:36:25.114Z,15.90
2018-12-23T10:37:25.087Z,19.10
2018-12-23T10:38:25.080Z,21.00
2018-12-23T10:39:25.176Z,19.00
2018-12-23T10:40:25.046Z,19.60
2018-12-23T10:41:25.044Z,21.50
2018-12-23T10:42:25.035Z,22.20
2018-12-23T10:43:25.013Z,20.00
2018-12-23T10:44:25.039Z,22.20
2018-12-23T10:45:24.992Z,22.40
2018-12-23T10:46:24.988Z,20.80
2018-12-23T10:47:24.980Z,15.80
2018-12-23T10:48:24.959Z,19.10
2018-12-23T10:49:24.983Z,22.10
2018-12-23T10:50:24.943Z,18.80
2018-12-23T10:51:25.017Z,18.00
2018-12-23T10:52:24.930Z,17.70
2018-12-23T10:53:24.910Z,20.10
2018-12-23T10:54:24.904Z,20.10
2018-12-23T10:55:24.886Z,17.30
2018-12-23T10:56:24.866Z,21.00
2018-12-23T10:57:24.883Z,22.20
2018-12-23T10:58:24.847Z,18.00
2018-12-23T10:59:24.833Z,16.60
2018-12-23T11:00:24.822Z,19.50
2018-12-23T11:01:24.811Z,21.50
2018-12-23T11:02:24.810Z,19.20
2018-12-23T11:03:24.789Z,20.10
2018-12-23T11:04:24.776Z,22.70
2018-12-23T11:05:24.875Z,21.80
2018-12-23T11:06:24.752Z,20.90
2018-12-23T11:07:24.757Z,25.90
2018-12-23T11:08:27.081Z,21.30
2018-12-23T11:09:24.720Z,17.80
2018-12-23T11:10:24.711Z,18.40
2018-12-23T11:11:24.700Z,23.20
2018-12-23T11:12:24.696Z,16.70
2018-12-23T11:13:24.682Z,22.60
2018-12-23T11:14:24.668Z,18.00
2018-12-23T11:15:24.659Z,17.10
2018-12-23T11:16:24.651Z,21.10
2018-12-23T11:17:24.647Z,18.20
2018-12-23T11:18:24.672Z,20.70
2018-12-23T11:19:24.616Z,19.10
2018-12-23T11:20:24.655Z,17.60
2018-12-23T11:21:24.588Z,19.30
2018-12-23T11:22:24.594Z,20.90
2018-12-23T11:23:24.562Z,18.60
2018-12-23T11:24:24.550Z,18.70
2018-12-23T11:25:24.545Z,15.70
2018-12-23T11:26:24.531Z,18.60
2018-12-23T11:27:24.519Z,14.20
2018-12-23T11:28:24.518Z,19.10
2018-12-23T11:29:24.495Z,16.80
2018-12-23T11:30:24.486Z,18.50
2018-12-23T11:31:24.475Z,21.10
2018-12-23T11:32:24.464Z,21.10
2018-12-23T11:33:24.464Z,18.30
2018-12-23T11:34:24.490Z,20.20
2018-12-23T11:35:24.432Z,20.80
2018-12-23T11:36:24.415Z,19.10
2018-12-23T11:37:24.421Z,19.00
2018-12-23T11:38:24.516Z,17.80
2018-12-23T11:39:24.388Z,20.80
2018-12-23T11:40:24.371Z,16.80
2018-12-23T11:41:24.367Z,19.00
2018-12-23T11:42:24.356Z,17.30
2018-12-23T11:43:24.353Z,18.10
2018-12-23T11:44:24.341Z,21.50
2018-12-23T11:45:24.315Z,21.70
2018-12-23T11:46:24.303Z,20.70
2018-12-23T11:47:24.291Z,21.60
2018-12-23T11:48:24.296Z,20.50
2018-12-23T11:49:24.272Z,19.70
2018-12-23T11:50:24.263Z,22.30
2018-12-23T11:51:24.244Z,16.50
2018-12-23T11:52:24.233Z,19.10
2018-12-23T11:53:24.251Z,18.60
2018-12-23T11:54:24.219Z,21.10
2018-12-23T11:55:24.204Z,19.10
2018-12-23T11:56:24.189Z,22.70
2018-12-23T11:57:24.177Z,22.30
2018-12-23T11:58:24.189Z,20.80
2018-12-23T11:59:24.164Z,20.60
2018-12-23T12:00:24.145Z,19.10
2018-12-23T12:01:24.145Z,21.10
2018-12-23T12:02:24.122Z,25.10
2018-12-23T12:03:24.114Z,19.00
2018-12-23T12:04:24.114Z,23.80
2018-12-23T12:05:24.094Z,21.20
2018-12-23T12:06:24.094Z,22.10
2018-12-23T12:07:24.077Z,19.60
2018-12-23T12:08:24.054Z,23.30
2018-12-23T12:09:24.055Z,23.30
2018-12-23T12:10:24.034Z,23.50
2018-12-23T12:11:24.025Z,19.80
2018-12-23T12:12:24.019Z,22.00
2018-12-23T12:13:24.017Z,23.40
2018-12-23T12:14:23.996Z,23.90
2018-12-23T12:15:23.975Z,24.00
2018-12-23T12:16:23.963Z,22.90
2018-12-23T12:17:25.313Z,20.50
2018-12-23T12:18:23.962Z,19.20
2018-12-23T12:19:23.941Z,25.90
2018-12-23T12:20:23.929Z,23.20
2018-12-23T12:21:23.909Z,21.80
2018-12-23T12:22:23.899Z,24.30
2018-12-23T12:23:23.894Z,22.30
2018-12-23T12:24:23.908Z,23.50
2018-12-23T12:25:23.867Z,24.60
2018-12-23T12:26:23.852Z,23.50
2018-12-23T12:27:23.838Z,23.60
2018-12-23T12:28:23.831Z,21.50
2018-12-23T12:29:23.834Z,23.00
2018-12-23T12:30:23.809Z,23.50
2018-12-23T12:31:23.796Z,20.40
2018-12-23T12:32:23.783Z,21.10
2018-12-23T12:33:23.780Z,19.30
2018-12-23T12:34:23.773Z,18.30
2018-12-23T12:35:23.761Z,17.10
2018-12-23T12:36:23.742Z,16.60
2018-12-23T12:37:23.744Z,20.60
2018-12-23T12:38:23.729Z,16.90
2018-12-23T12:39:23.752Z,16.90
2018-12-23T12:40:23.709Z,16.10
2018-12-23T12:41:23.681Z,14.50
2018-12-23T12:42:23.671Z,13.50
2018-12-23T12:43:23.755Z,16.60
2018-12-23T12:44:23.649Z,18.40
2018-12-23T12:45:23.648Z,17.00
2018-12-23T12:46:24.599Z,16.70
2018-12-23T12:47:23.623Z,17.00
2018-12-23T12:48:23.604Z,15.80
2018-12-23T12:49:23.601Z,16.00
2018-12-23T12:50:24.040Z,20.60
2018-12-23T12:51:23.575Z,18.30
2018-12-23T12:52:23.583Z,17.90
2018-12-23T12:53:23.558Z,21.80
2018-12-23T12:54:23.535Z,19.20